Terminal Aerodrome Forecast
Issued by NWS

Home | Current Version | Previous Version | Text Only | Print | Product List | Glossary On
Versions: 1 2 3 4 5 6 7 8 9 10 11 12 13 14 15 16 17 18
000
FTPA31 PHFO 112103 AAA
TAFHLI
TAF AMD
PHLI 112103Z 1121/1218 28005KT P6SM BKN050
     FM112300 17007KT P6SM VCSH SCT025 BKN050
     FM120600 23008KT P6SM VCSH SCT025 OVC035=

USA.gov is the U.S. government's official web portal to all federal, state and local government web resources and services.